createdAt,value
2018-02-14T00:01:43.292Z,-2.50
2018-02-14T00:03:46.706Z,-2.50
2018-02-14T00:05:50.073Z,-2.50
2018-02-14T00:07:53.474Z,-2.50
2018-02-14T00:09:56.834Z,-2.50
2018-02-14T00:12:00.243Z,-2.60
2018-02-14T00:14:03.609Z,-2.60
2018-02-14T00:16:06.951Z,-2.60
2018-02-14T00:18:11.144Z,-2.60
2018-02-14T00:20:15.297Z,-2.60
2018-02-14T00:22:19.411Z,-2.60
2018-02-14T00:24:22.782Z,-2.70
2018-02-14T00:26:26.148Z,-2.70
2018-02-14T00:28:30.340Z,-2.70
2018-02-14T00:30:33.693Z,-2.70
2018-02-14T00:32:37.813Z,-2.70
2018-02-14T00:34:41.169Z,-2.80
2018-02-14T00:36:44.498Z,-2.80
2018-02-14T00:38:47.874Z,-2.80
2018-02-14T00:40:51.988Z,-2.80
2018-02-14T00:42:56.193Z,-2.90
2018-02-14T00:44:59.572Z,-2.90
2018-02-14T00:47:02.925Z,-2.90
2018-02-14T00:49:06.288Z,-2.90
2018-02-14T00:51:09.662Z,-3.00
2018-02-14T00:53:13.758Z,-3.00
2018-02-14T00:55:17.924Z,-3.00
2018-02-14T00:57:21.290Z,-3.00
2018-02-14T00:59:25.462Z,-3.10
2018-02-14T01:01:28.800Z,-3.10
2018-02-14T01:03:32.138Z,-3.10
2018-02-14T01:05:35.510Z,-3.10
2018-02-14T01:07:38.878Z,-3.10
2018-02-14T01:09:42.241Z,-3.10
2018-02-14T01:11:46.348Z,-3.20
2018-02-14T01:13:50.453Z,-3.20
2018-02-14T01:15:53.813Z,-3.20
2018-02-14T01:17:57.202Z,-3.20
2018-02-14T01:20:06.354Z,-3.20
2018-02-14T01:22:09.719Z,-3.30
2018-02-14T01:24:13.096Z,-3.30
2018-02-14T01:26:16.480Z,-3.30
2018-02-14T01:28:19.836Z,-3.30
2018-02-14T01:30:23.165Z,-3.30
2018-02-14T01:32:26.543Z,-3.30
2018-02-14T01:34:29.884Z,-3.30
2018-02-14T01:36:33.295Z,-3.40
2018-02-14T01:38:37.412Z,-3.40
2018-02-14T01:40:40.780Z,-3.40
2018-02-14T01:42:44.209Z,-3.40
2018-02-14T01:44:47.573Z,-3.40
2018-02-14T01:46:51.783Z,-3.40
2018-02-14T01:48:55.904Z,-3.40
2018-02-14T01:50:59.290Z,-3.40
2018-02-14T01:53:02.668Z,-3.50
2018-02-14T01:55:06.017Z,-3.50
2018-02-14T01:57:09.431Z,-3.50
2018-02-14T01:59:12.754Z,-3.50
2018-02-14T02:01:16.883Z,-3.50
2018-02-14T02:03:21.020Z,-3.60
2018-02-14T02:05:24.390Z,-3.60
2018-02-14T02:07:27.756Z,-3.60
2018-02-14T02:09:31.120Z,-3.60
2018-02-14T02:11:34.465Z,-3.60
2018-02-14T02:13:37.860Z,-3.60
2018-02-14T02:15:41.197Z,-3.60
2018-02-14T02:17:44.545Z,-3.70
2018-02-14T02:19:48.637Z,-3.70
2018-02-14T02:21:52.763Z,-3.70
2018-02-14T02:23:56.139Z,-3.70
2018-02-14T02:26:00.245Z,-3.70
2018-02-14T02:28:03.622Z,-3.80
2018-02-14T02:30:06.954Z,-3.70
2018-02-14T02:32:10.322Z,-3.80
2018-02-14T02:34:13.688Z,-3.80
2018-02-14T02:36:17.078Z,-3.80
2018-02-14T02:38:20.431Z,-3.80
2018-02-14T02:40:31.749Z,-3.80
2018-02-14T02:42:35.107Z,-3.90
2018-02-14T02:44:38.465Z,-3.90
2018-02-14T02:46:41.814Z,-3.80
2018-02-14T02:48:45.185Z,-3.90
2018-02-14T02:50:48.548Z,-3.90
2018-02-14T02:52:52.659Z,-3.90
2018-02-14T02:54:56.844Z,-3.90
2018-02-14T02:57:00.973Z,-3.90
2018-02-14T02:59:05.086Z,-3.90
2018-02-14T03:01:08.475Z,-3.90
2018-02-14T03:03:11.845Z,-3.90
2018-02-14T03:05:15.241Z,-4.00
2018-02-14T03:07:18.580Z,-4.00
2018-02-14T03:09:21.974Z,-4.00
2018-02-14T03:11:25.368Z,-4.00
2018-02-14T03:13:28.701Z,-4.00
2018-02-14T03:15:32.051Z,-4.00
2018-02-14T03:17:35.422Z,-4.00
2018-02-14T03:19:38.780Z,-4.00
2018-02-14T03:21:42.130Z,-4.10
2018-02-14T03:23:45.478Z,-4.10
2018-02-14T03:25:49.605Z,-4.10
2018-02-14T03:27:52.977Z,-4.10
2018-02-14T03:29:57.079Z,-4.10
2018-02-14T03:32:01.222Z,-4.10
2018-02-14T03:34:04.592Z,-4.10
2018-02-14T03:36:07.967Z,-4.10
2018-02-14T03:38:11.343Z,-4.10
2018-02-14T03:40:15.468Z,-4.10
2018-02-14T03:42:19.621Z,-4.20
2018-02-14T03:44:22.983Z,-4.20
2018-02-14T03:46:26.329Z,-4.20
2018-02-14T03:48:29.744Z,-4.20
2018-02-14T03:50:33.115Z,-4.20
2018-02-14T03:52:36.492Z,-4.20
2018-02-14T03:54:39.858Z,-4.20
2018-02-14T03:56:43.961Z,-4.30
2018-02-14T03:58:49.072Z,-4.20
2018-02-14T04:00:53.183Z,-4.30
2018-02-14T04:02:56.632Z,-4.30
2018-02-14T04:04:59.984Z,-4.30
2018-02-14T04:07:03.335Z,-4.40
2018-02-14T04:09:06.709Z,-4.50
2018-02-14T04:11:10.061Z,-4.40
2018-02-14T04:13:14.183Z,-4.40
2018-02-14T04:15:17.583Z,-4.40
2018-02-14T04:17:20.949Z,-4.40
2018-02-14T04:19:24.387Z,-4.40
2018-02-14T04:21:27.742Z,-4.50
2018-02-14T04:23:31.099Z,-4.50
2018-02-14T04:25:34.465Z,-4.50
2018-02-14T04:27:37.818Z,-4.50
2018-02-14T04:29:41.938Z,-4.50
2018-02-14T04:31:45.263Z,-4.50
2018-02-14T04:33:48.632Z,-4.50
2018-02-14T04:35:52.046Z,-4.50
2018-02-14T04:37:55.418Z,-4.50
2018-02-14T04:39:58.810Z,-4.50
2018-02-14T04:42:02.181Z,-4.50
2018-02-14T04:44:05.546Z,-4.60
2018-02-14T04:46:08.914Z,-4.60
2018-02-14T04:48:12.261Z,-4.60
2018-02-14T04:50:15.639Z,-4.60
2018-02-14T04:52:19.010Z,-4.60
2018-02-14T04:54:22.352Z,-4.70
2018-02-14T04:56:25.699Z,-4.60
2018-02-14T04:58:29.041Z,-4.70
2018-02-14T05:00:33.177Z,-4.70
2018-02-14T05:02:36.538Z,-4.70
2018-02-14T05:04:39.873Z,-4.70
2018-02-14T05:06:43.226Z,-4.80
2018-02-14T05:08:46.587Z,-4.70
2018-02-14T05:10:50.732Z,-4.80
2018-02-14T05:12:54.338Z,-4.80
2018-02-14T05:14:57.798Z,-4.80
2018-02-14T05:17:01.973Z,-4.80
2018-02-14T05:19:05.293Z,-4.80
2018-02-14T05:21:09.369Z,-4.80
2018-02-14T05:23:12.760Z,-4.80
2018-02-14T05:25:16.104Z,-4.80
2018-02-14T05:27:19.461Z,-4.90
2018-02-14T05:29:23.609Z,-4.90
2018-02-14T05:31:26.943Z,-4.90
2018-02-14T05:33:30.309Z,-4.90
2018-02-14T05:35:33.682Z,-4.90
2018-02-14T05:37:37.785Z,-4.90
2018-02-14T05:39:41.155Z,-5.00
2018-02-14T05:41:46.487Z,-5.00
2018-02-14T05:43:50.620Z,-5.00
2018-02-14T05:45:53.971Z,-4.90
2018-02-14T05:47:57.325Z,-5.00
2018-02-14T05:50:00.704Z,-5.00
2018-02-14T05:52:04.064Z,-5.00
2018-02-14T05:54:08.169Z,-5.00
2018-02-14T05:56:12.313Z,-5.00
2018-02-14T05:58:15.637Z,-5.00
2018-02-14T06:00:19.029Z,-5.00
2018-02-14T06:02:22.658Z,-5.10
2018-02-14T06:04:26.912Z,-5.10
2018-02-14T06:06:30.317Z,-5.10
2018-02-14T06:08:33.682Z,-5.10
2018-02-14T06:10:37.076Z,-5.10
2018-02-14T06:12:40.421Z,-5.10
2018-02-14T06:14:43.746Z,-5.10
2018-02-14T06:16:47.170Z,-5.10
2018-02-14T06:18:50.554Z,-5.10
2018-02-14T06:20:53.950Z,-5.10
2018-02-14T06:22:57.278Z,-5.10
2018-02-14T06:25:00.607Z,-5.10
2018-02-14T06:27:03.988Z,-5.10
2018-02-14T06:29:08.134Z,-5.20
2018-02-14T06:31:11.525Z,-5.20
2018-02-14T06:33:14.972Z,-5.20
2018-02-14T06:35:18.305Z,-5.20
2018-02-14T06:37:22.608Z,-5.20
2018-02-14T06:39:25.951Z,-5.20
2018-02-14T06:41:29.331Z,-5.20
2018-02-14T06:43:32.691Z,-5.30
2018-02-14T06:45:36.032Z,-5.20
2018-02-14T06:47:39.415Z,-5.20
2018-02-14T06:49:42.739Z,-5.20
2018-02-14T06:51:46.865Z,-5.30
2018-02-14T06:53:50.236Z,-5.30
2018-02-14T06:55:54.346Z,-5.30
2018-02-14T06:57:59.395Z,-5.30
2018-02-14T07:00:03.542Z,-5.30
2018-02-14T07:02:06.874Z,-5.30
2018-02-14T07:04:10.224Z,-5.30
2018-02-14T07:06:13.545Z,-5.30
2018-02-14T07:08:16.920Z,-5.30
2018-02-14T07:10:20.290Z,-5.30
2018-02-14T07:12:23.633Z,-5.20
2018-02-14T07:14:27.789Z,-5.20
2018-02-14T07:16:31.155Z,-5.30
2018-02-14T07:18:35.250Z,-5.20
2018-02-14T07:20:39.388Z,-5.20
2018-02-14T07:22:42.736Z,-5.20
2018-02-14T07:24:46.130Z,-5.20
2018-02-14T07:26:50.262Z,-5.20
2018-02-14T07:28:54.379Z,-5.20
2018-02-14T07:30:57.744Z,-5.20
2018-02-14T07:33:01.089Z,-5.20
2018-02-14T07:35:04.426Z,-5.20
2018-02-14T07:37:07.776Z,-5.20
2018-02-14T07:39:11.880Z,-5.10
2018-02-14T07:41:15.252Z,-5.10
2018-02-14T07:43:18.575Z,-5.10
2018-02-14T07:45:21.908Z,-5.00
2018-02-14T07:47:26.041Z,-5.00
2018-02-14T07:49:29.375Z,-5.00
2018-02-14T07:51:32.785Z,-4.90
2018-02-14T07:53:36.109Z,-4.90
2018-02-14T07:55:40.196Z,-4.70
2018-02-14T07:57:43.563Z,-4.70
2018-02-14T07:59:46.913Z,-4.70
2018-02-14T08:01:50.299Z,-4.60
2018-02-14T08:03:53.623Z,-4.60
2018-02-14T08:05:56.960Z,-4.50
2018-02-14T08:08:01.097Z,-3.60
2018-02-14T08:10:04.441Z,-3.60
2018-02-14T08:12:07.817Z,-2.80
2018-02-14T08:14:11.228Z,-1.80
2018-02-14T08:16:15.334Z,0.20
2018-02-14T08:18:18.731Z,0.20
2018-02-14T08:20:22.097Z,1.10
2018-02-14T08:22:25.706Z,1.90
2018-02-14T08:24:29.078Z,2.50
2018-02-14T08:26:32.404Z,3.20
2018-02-14T08:28:35.776Z,3.50
2018-02-14T08:30:39.099Z,4.20
2018-02-14T08:32:43.193Z,5.20
2018-02-14T08:34:46.537Z,5.10
2018-02-14T08:36:49.869Z,5.60
2018-02-14T08:38:53.286Z,5.80
2018-02-14T08:40:56.648Z,6.00
2018-02-14T08:43:00.007Z,5.80
2018-02-14T08:45:03.414Z,5.90
2018-02-14T08:47:06.781Z,6.10
2018-02-14T08:49:10.171Z,6.50
2018-02-14T08:51:13.516Z,6.80
2018-02-14T08:53:16.854Z,6.90
2018-02-14T08:55:20.231Z,6.90
2018-02-14T08:57:23.570Z,6.70
2018-02-14T08:59:26.917Z,6.70
2018-02-14T09:01:30.274Z,6.50
2018-02-14T09:03:33.629Z,6.10
2018-02-14T09:05:36.980Z,5.70
2018-02-14T09:07:41.089Z,4.90
2018-02-14T09:09:45.204Z,4.70
2018-02-14T09:11:49.298Z,4.70
2018-02-14T09:13:53.413Z,5.00
2018-02-14T09:15:57.784Z,4.90
2018-02-14T09:18:01.125Z,4.90
2018-02-14T09:20:04.474Z,5.10
2018-02-14T09:22:07.800Z,5.30
2018-02-14T09:24:11.907Z,5.50
2018-02-14T09:26:15.261Z,5.50
2018-02-14T09:28:18.609Z,5.30
2018-02-14T09:30:22.838Z,5.60
2018-02-14T09:32:26.938Z,5.60
2018-02-14T09:34:30.266Z,5.80
2018-02-14T09:36:33.599Z,5.70
2018-02-14T09:38:37.674Z,5.80
2018-02-14T09:40:40.991Z,5.80
2018-02-14T09:42:44.323Z,6.20
2018-02-14T09:44:47.651Z,6.60
2018-02-14T09:46:51.034Z,6.80
2018-02-14T09:48:54.362Z,6.90
2018-02-14T09:50:57.694Z,6.80
2018-02-14T09:53:01.081Z,6.50
2018-02-14T09:55:04.411Z,6.50
2018-02-14T09:57:09.235Z,6.50
2018-02-14T09:59:12.581Z,6.50
2018-02-14T10:01:15.945Z,6.30
2018-02-14T10:03:20.079Z,5.80
2018-02-14T10:05:23.473Z,5.80
2018-02-14T10:07:26.800Z,5.70
2018-02-14T10:09:30.192Z,5.70
2018-02-14T10:11:33.504Z,6.00
2018-02-14T10:13:36.849Z,5.90
2018-02-14T10:15:40.199Z,5.60
2018-02-14T10:17:43.529Z,5.50
2018-02-14T10:19:48.213Z,5.50
2018-02-14T10:21:52.325Z,5.50
2018-02-14T10:23:57.635Z,5.60
2018-02-14T10:26:01.787Z,5.30
2018-02-14T10:28:05.135Z,5.20
2018-02-14T10:30:08.549Z,5.20
2018-02-14T10:32:12.660Z,5.50
2018-02-14T10:34:16.764Z,5.40
2018-02-14T10:36:20.159Z,5.40
2018-02-14T10:38:24.269Z,5.60
2018-02-14T10:40:28.410Z,5.50
2018-02-14T10:42:31.752Z,5.50
2018-02-14T10:44:35.074Z,5.50
2018-02-14T10:46:39.204Z,5.80
2018-02-14T10:48:42.544Z,5.80
2018-02-14T10:50:45.912Z,5.80
2018-02-14T10:52:50.046Z,5.90
2018-02-14T10:54:53.392Z,5.80
2018-02-14T10:56:56.795Z,6.10
2018-02-14T10:59:00.143Z,6.20
2018-02-14T11:01:03.580Z,6.50
2018-02-14T11:03:12.637Z,6.40
2018-02-14T11:05:21.521Z,6.70
2018-02-14T11:07:24.893Z,6.50
2018-02-14T11:09:28.213Z,6.80
2018-02-14T11:11:31.620Z,7.00
2018-02-14T11:13:34.949Z,6.90
2018-02-14T11:15:38.310Z,6.80
2018-02-14T11:17:41.681Z,6.60
2018-02-14T11:19:45.008Z,6.60
2018-02-14T11:21:48.397Z,6.70
2018-02-14T11:23:54.399Z,6.90
2018-02-14T11:25:58.590Z,7.60
2018-02-14T11:28:02.005Z,7.60
2018-02-14T11:30:05.421Z,7.80
2018-02-14T11:32:08.841Z,7.30
2018-02-14T11:34:12.309Z,6.80
2018-02-14T11:36:15.675Z,6.70
2018-02-14T11:38:20.019Z,6.80
2018-02-14T11:40:23.405Z,6.90
2018-02-14T11:42:26.721Z,7.10
2018-02-14T11:44:30.067Z,7.40
2018-02-14T11:46:33.423Z,7.50
2018-02-14T11:48:36.806Z,7.50
2018-02-14T11:50:40.818Z,7.50
2018-02-14T11:52:46.706Z,7.50
2018-02-14T11:54:50.700Z,7.50
2018-02-14T11:56:54.791Z,7.30
2018-02-14T11:58:58.945Z,7.20
2018-02-14T12:01:02.278Z,7.20
2018-02-14T12:03:06.398Z,7.20
2018-02-14T12:05:12.142Z,7.30
2018-02-14T12:07:15.489Z,7.30
2018-02-14T12:09:20.541Z,7.30
2018-02-14T12:11:23.884Z,7.50
2018-02-14T12:13:27.279Z,7.40
2018-02-14T12:15:31.404Z,7.50
2018-02-14T12:17:35.662Z,7.50
2018-02-14T12:19:38.979Z,7.50
2018-02-14T12:21:43.476Z,7.00
2018-02-14T12:23:46.769Z,7.00
2018-02-14T12:25:50.153Z,6.90
2018-02-14T12:27:54.412Z,7.30
2018-02-14T12:29:57.772Z,7.50
2018-02-14T12:32:01.150Z,7.70
2018-02-14T12:34:04.470Z,7.50
2018-02-14T12:36:07.867Z,7.60
2018-02-14T12:38:11.970Z,7.10
2018-02-14T12:40:16.055Z,7.20
2018-02-14T12:42:20.266Z,7.60
2018-02-14T12:44:23.581Z,7.60
2018-02-14T12:46:27.737Z,8.30
2018-02-14T12:48:32.778Z,8.30
2018-02-14T12:50:36.962Z,8.30
2018-02-14T12:52:41.089Z,8.20
2018-02-14T12:54:44.470Z,8.00
2018-02-14T12:56:47.835Z,8.10
2018-02-14T12:58:51.937Z,8.40
2018-02-14T13:00:56.026Z,8.80
2018-02-14T13:02:59.373Z,8.80
2018-02-14T13:05:02.680Z,9.00
2018-02-14T13:07:06.086Z,8.80
2018-02-14T13:09:09.566Z,8.70
2018-02-14T13:11:12.887Z,8.50
2018-02-14T13:13:16.238Z,7.80
2018-02-14T13:15:19.566Z,7.80
2018-02-14T13:17:23.708Z,8.00
2018-02-14T13:19:27.077Z,8.00
2018-02-14T13:21:30.387Z,8.00
2018-02-14T13:23:34.476Z,8.00
2018-02-14T13:25:38.700Z,8.00
2018-02-14T13:27:42.099Z,8.00
2018-02-14T13:29:47.240Z,8.40
2018-02-14T13:31:58.827Z,8.40
2018-02-14T13:34:03.835Z,8.50
2018-02-14T13:36:08.049Z,8.40
2018-02-14T13:38:12.487Z,8.00
2018-02-14T13:40:16.419Z,7.90
2018-02-14T13:42:19.986Z,7.90
2018-02-14T13:44:23.503Z,8.10
2018-02-14T13:46:28.250Z,8.40
2018-02-14T13:48:32.001Z,8.40
2018-02-14T13:50:35.482Z,8.10
2018-02-14T13:52:38.838Z,8.20
2018-02-14T13:54:42.172Z,8.30
2018-02-14T13:56:45.567Z,8.20
2018-02-14T13:58:49.122Z,8.10
2018-02-14T14:00:52.538Z,8.00
2018-02-14T14:02:55.959Z,7.80
2018-02-14T14:04:59.994Z,7.80
2018-02-14T14:07:03.839Z,7.70
2018-02-14T14:09:07.152Z,7.80
2018-02-14T14:11:10.496Z,8.10
2018-02-14T14:13:13.970Z,8.40
2018-02-14T14:15:17.335Z,8.60
2018-02-14T14:17:21.978Z,8.60
2018-02-14T14:19:25.588Z,8.40
2018-02-14T14:21:30.583Z,8.70
2018-02-14T14:23:34.803Z,8.90
2018-02-14T14:25:43.531Z,9.00
2018-02-14T14:27:47.321Z,8.60
2018-02-14T14:29:51.831Z,8.70
2018-02-14T14:31:57.697Z,8.50
2018-02-14T14:34:03.463Z,8.40
2018-02-14T14:36:10.434Z,8.10
2018-02-14T14:38:15.304Z,8.10
2018-02-14T14:40:19.582Z,8.10
2018-02-14T14:42:22.950Z,8.00
2018-02-14T14:44:26.309Z,7.80
2018-02-14T14:46:29.767Z,7.90
2018-02-14T14:48:33.146Z,7.70
2018-02-14T14:50:37.604Z,7.60
2018-02-14T14:52:40.971Z,7.70
2018-02-14T14:54:44.289Z,7.50
2018-02-14T14:56:47.599Z,7.20
2018-02-14T14:58:50.944Z,7.40
2018-02-14T15:00:54.295Z,7.50
2018-02-14T15:02:57.729Z,7.50
2018-02-14T15:05:02.640Z,7.40
2018-02-14T15:07:06.014Z,7.30
2018-02-14T15:09:10.643Z,7.40
2018-02-14T15:11:16.344Z,7.50
2018-02-14T15:13:22.150Z,7.70
2018-02-14T15:15:25.510Z,7.70
2018-02-14T15:17:28.941Z,7.40
2018-02-14T15:19:32.402Z,7.00
2018-02-14T15:21:35.744Z,6.80
2018-02-14T15:23:39.104Z,6.70
2018-02-14T15:25:45.072Z,6.90
2018-02-14T15:27:49.118Z,6.90
2018-02-14T15:29:53.551Z,6.80
2018-02-14T15:31:58.466Z,6.80
2018-02-14T15:34:02.187Z,6.40
2018-02-14T15:36:05.547Z,6.00
2018-02-14T15:38:08.947Z,5.90
2018-02-14T15:40:12.499Z,5.80
2018-02-14T15:42:15.847Z,5.60
2018-02-14T15:44:19.252Z,5.50
2018-02-14T15:46:22.618Z,5.40
2018-02-14T15:48:25.976Z,5.20
2018-02-14T15:50:29.370Z,5.20
2018-02-14T15:52:32.811Z,5.10
2018-02-14T15:54:36.318Z,5.10
2018-02-14T15:56:41.217Z,5.10
2018-02-14T15:58:44.567Z,4.90
2018-02-14T16:00:48.000Z,4.70
2018-02-14T16:02:51.445Z,4.60
2018-02-14T16:04:54.781Z,4.60
2018-02-14T16:06:59.559Z,4.60
2018-02-14T16:09:03.260Z,4.60
2018-02-14T16:11:07.507Z,4.60
2018-02-14T16:13:10.820Z,4.60
2018-02-14T16:15:14.928Z,4.50
2018-02-14T16:17:19.630Z,4.40
2018-02-14T16:19:23.131Z,4.30
2018-02-14T16:21:29.942Z,4.20
2018-02-14T16:23:34.129Z,4.10
2018-02-14T16:25:38.261Z,3.90
2018-02-14T16:27:41.597Z,3.90
2018-02-14T16:29:44.939Z,3.80
2018-02-14T16:31:48.299Z,3.60
2018-02-14T16:33:51.700Z,3.60
2018-02-14T16:35:55.044Z,3.50
2018-02-14T16:37:58.417Z,3.50
2018-02-14T16:40:01.771Z,3.50
2018-02-14T16:42:06.168Z,3.40
2018-02-14T16:44:09.482Z,3.40
2018-02-14T16:46:12.851Z,3.30
2018-02-14T16:48:16.221Z,3.30
2018-02-14T16:50:20.137Z,3.20
2018-02-14T16:52:23.562Z,3.10
2018-02-14T16:54:27.218Z,3.00
2018-02-14T16:56:31.577Z,3.00
2018-02-14T16:58:35.706Z,3.00
2018-02-14T17:00:39.025Z,2.90
2018-02-14T17:02:42.380Z,3.00
2018-02-14T17:04:47.273Z,3.00
2018-02-14T17:06:50.693Z,2.90
2018-02-14T17:08:55.152Z,2.90
2018-02-14T17:10:58.909Z,3.00
2018-02-14T17:13:02.410Z,2.90
2018-02-14T17:15:06.962Z,2.80
2018-02-14T17:17:10.610Z,2.70
2018-02-14T17:19:15.480Z,2.50
2018-02-14T17:21:19.946Z,2.40
2018-02-14T17:23:24.156Z,2.30
2018-02-14T17:25:29.274Z,2.40
2018-02-14T17:27:32.694Z,2.30
2018-02-14T17:29:36.127Z,2.30
2018-02-14T17:31:39.459Z,2.30
2018-02-14T17:33:42.816Z,2.30
2018-02-14T17:35:47.414Z,2.30
2018-02-14T17:37:50.789Z,2.20
2018-02-14T17:39:55.044Z,2.10
2018-02-14T17:41:58.435Z,2.00
2018-02-14T17:44:02.584Z,1.80
2018-02-14T17:46:08.304Z,1.60
2018-02-14T17:48:12.650Z,1.60
2018-02-14T17:50:16.213Z,1.60
2018-02-14T17:52:19.595Z,1.60
2018-02-14T17:54:23.719Z,1.60
2018-02-14T17:56:27.196Z,1.60
2018-02-14T17:58:30.577Z,1.50
2018-02-14T18:00:34.008Z,1.50
2018-02-14T18:02:37.392Z,1.40
2018-02-14T18:04:40.721Z,1.30
2018-02-14T18:06:44.884Z,1.20
2018-02-14T18:08:48.244Z,1.20
2018-02-14T18:10:52.384Z,1.20
2018-02-14T18:12:56.706Z,1.10
2018-02-14T18:15:00.064Z,1.10
2018-02-14T18:17:03.434Z,1.10
2018-02-14T18:19:07.584Z,1.10
2018-02-14T18:21:11.109Z,1.00
2018-02-14T18:23:14.524Z,1.00
2018-02-14T18:25:17.982Z,1.00
2018-02-14T18:27:21.322Z,1.00
2018-02-14T18:29:24.686Z,0.90
2018-02-14T18:31:28.208Z,0.90
2018-02-14T18:33:31.584Z,0.80
2018-02-14T18:35:34.940Z,0.80
2018-02-14T18:37:38.699Z,0.80
2018-02-14T18:39:42.960Z,0.70
2018-02-14T18:41:46.350Z,0.70
2018-02-14T18:43:50.050Z,0.70
2018-02-14T18:45:54.266Z,0.60
2018-02-14T18:47:57.664Z,0.60
2018-02-14T18:50:01.082Z,0.60
2018-02-14T18:52:05.244Z,0.60
2018-02-14T18:54:08.892Z,0.50
2018-02-14T18:56:12.676Z,0.50
2018-02-14T18:58:18.857Z,0.50
2018-02-14T19:00:23.074Z,0.50
2018-02-14T19:02:27.394Z,0.40
2018-02-14T19:04:31.088Z,0.40
2018-02-14T19:06:35.695Z,0.30
2018-02-14T19:08:39.177Z,0.30
2018-02-14T19:10:42.526Z,0.30
2018-02-14T19:12:47.180Z,0.30
2018-02-14T19:14:52.975Z,0.30
2018-02-14T19:16:56.326Z,0.20
2018-02-14T19:19:00.977Z,0.20
2018-02-14T19:21:05.295Z,0.20
2018-02-14T19:23:08.690Z,0.10
2018-02-14T19:25:13.161Z,0.10
2018-02-14T19:27:18.703Z,0.10
2018-02-14T19:29:22.657Z,0.20
2018-02-14T19:31:26.121Z,0.10
2018-02-14T19:33:30.271Z,0.20
2018-02-14T19:35:33.621Z,0.10
2018-02-14T19:37:36.986Z,0.20
2018-02-14T19:39:41.159Z,0.20
2018-02-14T19:41:44.533Z,0.20
2018-02-14T19:43:48.863Z,0.20
2018-02-14T19:45:53.168Z,0.20
2018-02-14T19:47:56.566Z,0.20
2018-02-14T19:50:00.859Z,0.30
2018-02-14T19:52:04.428Z,0.30
2018-02-14T19:54:07.766Z,0.40
2018-02-14T19:56:11.945Z,0.40
2018-02-14T19:58:16.181Z,0.30
2018-02-14T20:00:21.299Z,0.40
2018-02-14T20:02:25.561Z,0.30
2018-02-14T20:04:28.917Z,0.40
2018-02-14T20:06:32.490Z,0.40
2018-02-14T20:08:37.449Z,0.40
2018-02-14T20:10:40.985Z,0.40
2018-02-14T20:12:47.314Z,0.40
2018-02-14T20:14:52.520Z,0.40
2018-02-14T20:16:56.135Z,0.50
2018-02-14T20:19:00.266Z,0.50
2018-02-14T20:21:03.637Z,0.40
2018-02-14T20:23:07.209Z,0.40
2018-02-14T20:25:10.836Z,0.50
2018-02-14T20:27:14.589Z,0.50
2018-02-14T20:29:17.958Z,0.50
2018-02-14T20:31:21.473Z,0.50
2018-02-14T20:33:25.142Z,0.50
2018-02-14T20:35:28.692Z,0.50
2018-02-14T20:37:33.386Z,0.50
2018-02-14T20:39:36.788Z,0.50
2018-02-14T20:41:40.154Z,0.50
2018-02-14T20:43:46.090Z,0.50
2018-02-14T20:45:49.482Z,0.50
2018-02-14T20:47:53.212Z,0.50
2018-02-14T20:49:56.622Z,0.50
2018-02-14T20:51:59.983Z,0.50
2018-02-14T20:54:03.634Z,0.50
2018-02-14T20:56:07.751Z,0.50
2018-02-14T20:58:11.888Z,0.50
2018-02-14T21:00:15.571Z,0.50
2018-02-14T21:02:18.983Z,0.50
2018-02-14T21:04:22.345Z,0.50
2018-02-14T21:06:26.440Z,0.40
2018-02-14T21:08:29.803Z,0.40
2018-02-14T21:10:33.177Z,0.40
2018-02-14T21:12:36.530Z,0.40
2018-02-14T21:14:40.699Z,0.40
2018-02-14T21:16:44.171Z,0.40
2018-02-14T21:18:47.498Z,0.40
2018-02-14T21:20:50.857Z,0.40
2018-02-14T21:22:54.209Z,0.40
2018-02-14T21:24:57.573Z,0.40
2018-02-14T21:27:00.945Z,0.30
2018-02-14T21:29:04.294Z,0.30
2018-02-14T21:31:08.498Z,0.30
2018-02-14T21:33:12.619Z,0.40
2018-02-14T21:35:16.726Z,0.40
2018-02-14T21:37:20.872Z,0.40
2018-02-14T21:39:24.218Z,0.40
2018-02-14T21:41:28.371Z,0.30
2018-02-14T21:43:31.736Z,0.30
2018-02-14T21:45:35.128Z,0.30
2018-02-14T21:47:38.505Z,0.30
2018-02-14T21:49:42.663Z,0.30
2018-02-14T21:51:46.036Z,0.30
2018-02-14T21:53:49.422Z,0.30
2018-02-14T21:55:52.772Z,0.30
2018-02-14T21:57:56.152Z,0.30
2018-02-14T21:59:59.496Z,0.30
2018-02-14T22:02:02.855Z,0.20
2018-02-14T22:04:06.232Z,0.30
2018-02-14T22:06:10.377Z,0.30
2018-02-14T22:08:13.774Z,0.30
2018-02-14T22:10:17.154Z,0.20
2018-02-14T22:12:21.286Z,0.20
2018-02-14T22:14:24.665Z,0.20
2018-02-14T22:16:28.006Z,0.20
2018-02-14T22:18:31.372Z,0.10
2018-02-14T22:20:34.704Z,0.10
2018-02-14T22:22:38.038Z,0.20
2018-02-14T22:24:41.408Z,0.10
2018-02-14T22:26:45.521Z,0.10
2018-02-14T22:28:48.884Z,0.10
2018-02-14T22:30:52.242Z,0.10
2018-02-14T22:32:55.566Z,0.00
2018-02-14T22:34:59.711Z,0.10
2018-02-14T22:37:03.821Z,0.10
2018-02-14T22:39:07.993Z,0.10
2018-02-14T22:41:11.326Z,0.10
2018-02-14T22:43:15.492Z,0.10
2018-02-14T22:45:18.888Z,0.10
2018-02-14T22:47:22.259Z,0.10
2018-02-14T22:49:25.598Z,0.10
2018-02-14T22:51:28.925Z,0.10
2018-02-14T22:53:32.309Z,0.10
2018-02-14T22:55:36.437Z,0.10
2018-02-14T22:57:39.878Z,0.10
2018-02-14T22:59:43.204Z,0.10
2018-02-14T23:01:46.570Z,0.10
2018-02-14T23:03:50.683Z,0.10
2018-02-14T23:05:54.819Z,0.10
2018-02-14T23:07:59.060Z,0.10
2018-02-14T23:10:03.281Z,0.10
2018-02-14T23:12:06.646Z,0.10
2018-02-14T23:14:09.995Z,0.10
2018-02-14T23:16:14.146Z,0.10
2018-02-14T23:18:17.517Z,0.10
2018-02-14T23:20:20.886Z,0.20
2018-02-14T23:22:25.009Z,0.20
2018-02-14T23:24:29.197Z,0.10
2018-02-14T23:26:33.347Z,0.10
2018-02-14T23:28:36.684Z,0.10
2018-02-14T23:30:40.184Z,0.10
2018-02-14T23:32:43.586Z,0.10
2018-02-14T23:34:46.918Z,0.10
2018-02-14T23:36:50.338Z,0.20
2018-02-14T23:38:53.694Z,0.20
2018-02-14T23:40:57.066Z,0.20
2018-02-14T23:43:00.489Z,0.20
2018-02-14T23:45:03.879Z,0.10
2018-02-14T23:47:07.313Z,0.10
2018-02-14T23:49:10.665Z,0.10
2018-02-14T23:51:14.007Z,0.10
2018-02-14T23:53:17.397Z,0.10
2018-02-14T23:55:20.782Z,0.20
2018-02-14T23:57:24.161Z,0.20
2018-02-14T23:59:27.520Z,0.20
